createdAt,value
2018-08-28T00:01:47.665Z,2.67
2018-08-28T00:04:16.122Z,3.13
2018-08-28T00:06:44.439Z,3.83
2018-08-28T00:09:12.764Z,3.07
2018-08-28T00:11:41.110Z,2.00
2018-08-28T00:14:09.563Z,2.13
2018-08-28T00:16:38.013Z,1.20
2018-08-28T00:19:06.428Z,1.90
2018-08-28T00:21:34.938Z,1.80
2018-08-28T00:24:03.309Z,3.23
2018-08-28T00:26:31.632Z,1.97
2018-08-28T00:28:59.978Z,2.67
2018-08-28T00:31:28.458Z,2.50
2018-08-28T00:33:56.791Z,4.37
2018-08-28T00:36:25.282Z,5.17
2018-08-28T00:39:00.193Z,5.27
2018-08-28T00:41:28.661Z,5.83
2018-08-28T00:43:56.986Z,4.63
2018-08-28T00:46:25.324Z,3.63
2018-08-28T00:48:53.677Z,2.63
2018-08-28T00:51:22.012Z,2.40
2018-08-28T00:53:50.681Z,3.30
2018-08-28T00:56:19.147Z,3.20
2018-08-28T00:58:47.693Z,2.37
2018-08-28T01:01:16.185Z,1.90
2018-08-28T01:03:44.540Z,2.27
2018-08-28T01:06:12.945Z,5.70
2018-08-28T01:08:41.364Z,7.70
2018-08-28T01:11:10.127Z,3.80
2018-08-28T01:13:38.992Z,2.83
2018-08-28T01:16:07.363Z,3.00
2018-08-28T01:18:35.716Z,2.37
2018-08-28T01:21:04.078Z,4.70
2018-08-28T01:26:07.684Z,3.73
2018-08-28T01:28:36.098Z,2.93
2018-08-28T01:31:05.087Z,1.90
2018-08-28T01:33:33.448Z,3.33
2018-08-28T01:36:01.873Z,2.77
2018-08-28T01:38:30.218Z,2.00
2018-08-28T01:40:58.596Z,2.50
2018-08-28T01:43:30.378Z,2.20
2018-08-28T01:45:58.752Z,2.77
2018-08-28T01:48:27.406Z,1.00
2018-08-28T01:50:55.752Z,1.77
2018-08-28T01:53:24.158Z,1.87
2018-08-28T01:55:52.525Z,3.93
2018-08-28T01:58:20.974Z,3.50
2018-08-28T02:00:49.350Z,2.37
2018-08-28T02:03:17.684Z,2.83
2018-08-28T02:05:46.004Z,1.83
2018-08-28T02:08:14.947Z,4.37
2018-08-28T02:10:44.074Z,1.27
2018-08-28T02:13:12.636Z,2.60
2018-08-28T02:15:40.918Z,2.43
2018-08-28T02:18:09.257Z,2.50
2018-08-28T02:20:38.202Z,1.43
2018-08-28T02:23:06.528Z,1.30
2018-08-28T02:25:34.890Z,1.23
2018-08-28T02:28:03.268Z,3.30
2018-08-28T02:30:31.654Z,1.93
2018-08-28T02:32:59.983Z,1.37
2018-08-28T02:35:28.821Z,1.97
2018-08-28T02:37:57.170Z,3.10
2018-08-28T02:40:25.528Z,3.20
2018-08-28T02:42:54.466Z,2.13
2018-08-28T02:45:22.812Z,3.10
2018-08-28T02:47:51.780Z,4.00
2018-08-28T02:50:20.138Z,2.30
2018-08-28T02:52:48.512Z,2.87
2018-08-28T02:55:16.968Z,4.30
2018-08-28T02:57:45.344Z,5.53
2018-08-28T03:00:13.695Z,2.83
2018-08-28T03:02:42.134Z,1.43
2018-08-28T03:05:10.672Z,1.10
2018-08-28T03:07:38.993Z,1.87
2018-08-28T03:10:07.445Z,1.07
2018-08-28T03:12:35.776Z,1.60
2018-08-28T03:15:04.256Z,1.53
2018-08-28T03:17:32.588Z,1.10
2018-08-28T03:20:00.927Z,1.47
2018-08-28T03:22:29.325Z,0.87
2018-08-28T03:24:57.645Z,1.03
2018-08-28T03:27:26.005Z,1.23
2018-08-28T03:29:54.365Z,1.60
2018-08-28T03:32:22.673Z,1.13
2018-08-28T03:34:51.136Z,1.03
2018-08-28T03:37:19.458Z,1.43
2018-08-28T03:39:47.814Z,1.80
2018-08-28T03:42:16.150Z,1.40
2018-08-28T03:44:44.558Z,0.80
2018-08-28T03:47:12.891Z,1.00
2018-08-28T03:49:41.266Z,2.07
2018-08-28T03:52:09.608Z,2.30
2018-08-28T03:54:37.960Z,1.83
2018-08-28T03:57:06.291Z,1.37
2018-08-28T03:59:34.682Z,1.93
2018-08-28T04:02:09.839Z,1.20
2018-08-28T04:04:38.280Z,3.47
2018-08-28T04:07:06.611Z,1.90
2018-08-28T04:09:34.961Z,3.10
2018-08-28T04:12:03.299Z,2.03
2018-08-28T04:14:31.678Z,4.20
2018-08-28T04:17:00.088Z,1.57
2018-08-28T04:19:28.425Z,2.90
2018-08-28T04:21:56.866Z,2.00
2018-08-28T04:24:25.216Z,3.40
2018-08-28T04:26:53.542Z,1.50
2018-08-28T04:29:21.908Z,2.40
2018-08-28T04:31:50.794Z,3.27
2018-08-28T04:34:19.159Z,2.97
2018-08-28T04:36:47.486Z,1.93
2018-08-28T04:39:15.842Z,2.40
2018-08-28T04:41:44.824Z,2.77
2018-08-28T04:44:13.124Z,1.50
2018-08-28T04:46:41.454Z,1.80
2018-08-28T04:49:09.824Z,3.17
2018-08-28T04:51:38.188Z,4.07
2018-08-28T04:54:06.518Z,2.37
2018-08-28T04:56:34.894Z,1.90
2018-08-28T04:59:03.346Z,3.23
2018-08-28T05:01:31.838Z,2.07
2018-08-28T05:04:00.334Z,1.70
2018-08-28T05:06:29.360Z,2.30
2018-08-28T05:08:57.746Z,3.00
2018-08-28T05:11:26.092Z,1.60
2018-08-28T05:13:54.464Z,1.83
2018-08-28T05:16:23.028Z,1.90
2018-08-28T05:18:51.380Z,1.77
2018-08-28T05:21:19.722Z,1.97
2018-08-28T05:23:48.052Z,1.47
2018-08-28T05:26:16.461Z,3.13
2018-08-28T05:28:44.826Z,1.03
2018-08-28T05:31:13.202Z,3.60
2018-08-28T05:33:41.573Z,2.67
2018-08-28T05:36:09.928Z,2.73
2018-08-28T05:38:38.288Z,3.00
2018-08-28T05:41:07.532Z,2.40
2018-08-28T05:43:35.956Z,1.47
2018-08-28T05:46:04.292Z,1.87
2018-08-28T05:48:34.676Z,2.20
2018-08-28T05:51:03.092Z,3.67
2018-08-28T05:53:31.556Z,3.10
2018-08-28T05:55:59.941Z,1.97
2018-08-28T05:58:28.283Z,2.97
2018-08-28T06:00:56.648Z,2.60
2018-08-28T06:03:25.246Z,2.07
2018-08-28T06:05:53.496Z,2.33
2018-08-28T06:08:21.869Z,1.40
2018-08-28T06:10:50.342Z,3.13
2018-08-28T06:13:18.779Z,2.63
2018-08-28T06:15:47.101Z,1.93
2018-08-28T06:18:15.430Z,2.73
2018-08-28T06:20:44.061Z,3.03
2018-08-28T06:23:12.541Z,4.77
2018-08-28T06:25:41.064Z,3.57
2018-08-28T06:28:09.447Z,3.00
2018-08-28T06:30:38.595Z,3.40
2018-08-28T06:33:07.579Z,3.27
2018-08-28T06:35:35.947Z,3.23
2018-08-28T06:38:04.293Z,7.43
2018-08-28T06:40:32.693Z,2.60
2018-08-28T06:43:01.058Z,1.33
2018-08-28T06:45:29.432Z,2.50
2018-08-28T06:47:57.884Z,7.43
2018-08-28T06:50:26.250Z,3.60
2018-08-28T06:52:54.643Z,2.33
2018-08-28T06:55:23.036Z,5.23
2018-08-28T06:57:52.125Z,4.60
2018-08-28T07:00:20.532Z,5.67
2018-08-28T07:02:49.549Z,5.67
2018-08-28T07:05:17.923Z,3.00
2018-08-28T07:07:46.308Z,5.70
2018-08-28T07:10:14.708Z,5.47
2018-08-28T07:12:43.008Z,3.87
2018-08-28T07:15:11.401Z,3.80
2018-08-28T07:17:39.714Z,5.80
2018-08-28T07:20:08.124Z,3.90
2018-08-28T07:22:36.477Z,5.07
2018-08-28T07:25:05.567Z,5.37
2018-08-28T07:27:33.937Z,5.23
2018-08-28T07:30:02.305Z,3.17
2018-08-28T07:32:30.715Z,5.53
2018-08-28T07:34:59.053Z,3.27
2018-08-28T07:37:27.440Z,3.20
2018-08-28T07:40:02.650Z,3.53
2018-08-28T07:42:31.002Z,4.53
2018-08-28T07:44:59.355Z,4.93
2018-08-28T07:47:28.333Z,5.07
2018-08-28T07:49:56.695Z,5.33
2018-08-28T07:52:25.120Z,6.50
2018-08-28T07:54:53.485Z,5.13
2018-08-28T07:59:56.496Z,5.57
2018-08-28T08:02:25.169Z,6.03
2018-08-28T08:04:53.584Z,6.13
2018-08-28T08:07:21.919Z,6.70
2018-08-28T08:09:50.277Z,6.93
2018-08-28T08:12:18.619Z,8.00
2018-08-28T08:14:47.053Z,6.00
2018-08-28T08:17:15.468Z,8.37
2018-08-28T08:19:43.798Z,8.77
2018-08-28T08:22:12.281Z,9.77
2018-08-28T08:24:41.066Z,7.97
2018-08-28T08:27:09.467Z,10.00
2018-08-28T08:29:37.791Z,10.73
2018-08-28T08:32:06.353Z,9.67
2018-08-28T08:34:34.777Z,7.20
2018-08-28T08:37:03.131Z,10.43
2018-08-28T08:39:31.485Z,10.30
2018-08-28T08:42:00.654Z,7.67
2018-08-28T08:44:29.126Z,6.63
2018-08-28T08:46:57.480Z,6.40
2018-08-28T08:49:25.883Z,7.20
2018-08-28T08:51:54.317Z,6.93
2018-08-28T08:54:23.137Z,8.40
2018-08-28T08:56:51.474Z,7.07
2018-08-28T08:59:20.315Z,8.77
2018-08-28T09:01:48.878Z,7.77
2018-08-28T09:04:17.265Z,6.80
2018-08-28T09:06:46.142Z,7.03
2018-08-28T09:09:14.547Z,7.70
2018-08-28T09:11:42.889Z,6.80
2018-08-28T09:14:11.219Z,5.60
2018-08-28T09:16:39.590Z,4.73
2018-08-28T09:19:07.921Z,6.07
2018-08-28T09:21:36.284Z,5.33
2018-08-28T09:24:04.642Z,5.47
2018-08-28T09:26:32.954Z,4.40
2018-08-28T09:29:01.286Z,4.73
2018-08-28T09:31:30.503Z,5.20
2018-08-28T09:33:58.798Z,4.40
2018-08-28T09:36:27.143Z,5.80
2018-08-28T09:38:55.467Z,4.93
2018-08-28T09:41:23.811Z,5.33
2018-08-28T09:43:52.206Z,4.50
2018-08-28T09:46:20.567Z,5.70
2018-08-28T09:48:50.111Z,5.43
2018-08-28T09:51:18.443Z,4.73
2018-08-28T09:53:47.627Z,3.80
2018-08-28T09:56:16.040Z,4.57
2018-08-28T09:58:44.377Z,5.53
2018-08-28T10:01:18.250Z,3.00
2018-08-28T10:03:46.649Z,4.73
2018-08-28T10:06:15.085Z,4.90
2018-08-28T10:08:43.429Z,3.03
2018-08-28T10:11:11.803Z,5.10
2018-08-28T10:13:40.173Z,5.60
2018-08-28T10:16:08.623Z,4.90
2018-08-28T10:18:36.971Z,5.03
2018-08-28T10:21:05.408Z,3.57
2018-08-28T10:23:33.761Z,4.17
2018-08-28T10:26:02.206Z,4.03
2018-08-28T10:28:30.554Z,3.63
2018-08-28T10:30:59.017Z,3.90
2018-08-28T10:33:27.358Z,3.43
2018-08-28T10:35:55.722Z,4.87
2018-08-28T10:38:24.090Z,4.67
2018-08-28T10:40:52.452Z,4.23
2018-08-28T10:43:20.921Z,4.47
2018-08-28T10:45:49.766Z,5.23
2018-08-28T10:48:18.131Z,5.53
2018-08-28T10:50:46.505Z,3.90
2018-08-28T10:53:14.841Z,5.77
2018-08-28T10:55:43.182Z,4.00
2018-08-28T10:58:11.543Z,5.13
2018-08-28T11:00:39.934Z,5.23
2018-08-28T11:03:08.276Z,4.40
2018-08-28T11:05:36.611Z,4.93
2018-08-28T11:08:04.963Z,4.43
2018-08-28T11:10:33.329Z,4.77
2018-08-28T11:13:01.722Z,4.00
2018-08-28T11:15:30.086Z,4.10
2018-08-28T11:17:58.400Z,3.63
2018-08-28T11:20:26.872Z,4.57
2018-08-28T11:22:55.296Z,3.90
2018-08-28T11:25:24.304Z,5.67
2018-08-28T11:27:52.637Z,4.83
2018-08-28T11:30:21.096Z,4.53
2018-08-28T11:32:49.476Z,4.80
2018-08-28T11:35:17.786Z,5.03
2018-08-28T11:37:46.144Z,4.90
2018-08-28T11:40:14.539Z,4.77
2018-08-28T11:42:42.988Z,3.83
2018-08-28T11:45:11.338Z,5.10
2018-08-28T11:47:39.673Z,3.73
2018-08-28T11:50:08.163Z,4.53
2018-08-28T11:52:36.662Z,5.30
2018-08-28T11:55:05.004Z,4.43
2018-08-28T11:57:33.480Z,4.57
2018-08-28T12:00:01.867Z,4.60
2018-08-28T12:02:30.227Z,4.80
2018-08-28T12:04:58.764Z,4.57
2018-08-28T12:07:27.140Z,6.67
2018-08-28T12:09:55.433Z,6.53
2018-08-28T12:12:23.783Z,5.43
2018-08-28T12:14:52.150Z,5.63
2018-08-28T12:17:20.572Z,6.53
2018-08-28T12:19:48.924Z,6.10
2018-08-28T12:22:17.247Z,5.60
2018-08-28T12:24:45.571Z,5.80
2018-08-28T12:27:13.962Z,5.70
2018-08-28T12:29:42.401Z,4.87
2018-08-28T12:32:10.653Z,5.60
2018-08-28T12:34:39.087Z,5.53
2018-08-28T12:37:07.462Z,5.63
2018-08-28T12:39:35.762Z,6.17
2018-08-28T12:42:04.098Z,5.20
2018-08-28T12:44:32.481Z,5.50
2018-08-28T12:47:00.832Z,5.57
2018-08-28T12:49:29.180Z,5.37
2018-08-28T12:51:57.555Z,5.87
2018-08-28T12:54:25.912Z,4.43
2018-08-28T12:56:54.323Z,4.90
2018-08-28T12:59:22.673Z,6.13
2018-08-28T13:01:50.999Z,5.67
2018-08-28T13:04:19.376Z,5.60
2018-08-28T13:06:47.721Z,5.60
2018-08-28T13:09:16.841Z,4.90
2018-08-28T13:11:45.193Z,6.30
2018-08-28T13:14:13.525Z,6.03
2018-08-28T13:16:41.926Z,6.70
2018-08-28T13:19:10.277Z,6.03
2018-08-28T13:21:38.721Z,6.07
2018-08-28T13:24:07.057Z,5.80
2018-08-28T13:26:35.407Z,6.33
2018-08-28T13:29:03.769Z,5.10
2018-08-28T13:31:32.095Z,5.97
2018-08-28T13:34:00.465Z,6.40
2018-08-28T13:36:28.825Z,6.40
2018-08-28T13:38:57.197Z,6.30
2018-08-28T13:41:25.549Z,6.10
2018-08-28T13:43:53.937Z,5.10
2018-08-28T13:46:22.304Z,6.10
2018-08-28T13:48:51.149Z,7.07
2018-08-28T13:51:26.261Z,5.10
2018-08-28T13:53:54.741Z,5.23
2018-08-28T13:56:23.215Z,5.70
2018-08-28T13:58:51.565Z,5.93
2018-08-28T14:01:19.941Z,5.77
2018-08-28T14:03:48.423Z,6.57
2018-08-28T14:06:16.759Z,6.17
2018-08-28T14:08:45.113Z,5.60
2018-08-28T14:11:13.469Z,6.27
2018-08-28T14:13:41.965Z,6.40
2018-08-28T14:16:10.255Z,5.80
2018-08-28T14:18:38.589Z,5.90
2018-08-28T14:21:07.033Z,5.00
2018-08-28T14:23:35.440Z,5.27
2018-08-28T14:26:03.991Z,5.50
2018-08-28T14:28:32.442Z,5.80
2018-08-28T14:31:00.760Z,6.37
2018-08-28T14:33:29.627Z,6.40
2018-08-28T14:35:57.965Z,6.17
2018-08-28T14:38:26.330Z,6.40
2018-08-28T14:40:54.701Z,5.90
2018-08-28T14:43:23.097Z,6.37
2018-08-28T14:45:51.504Z,5.63
2018-08-28T14:48:19.891Z,6.23
2018-08-28T14:50:48.411Z,5.50
2018-08-28T14:53:16.815Z,6.10
2018-08-28T14:55:46.027Z,6.70
2018-08-28T14:58:14.390Z,5.63
2018-08-28T15:00:42.735Z,7.10
2018-08-28T15:03:22.757Z,6.23
2018-08-28T15:05:51.135Z,5.37
2018-08-28T15:08:19.504Z,6.00
2018-08-28T15:10:47.914Z,5.77
2018-08-28T15:13:16.265Z,5.90
2018-08-28T15:15:44.629Z,5.17
2018-08-28T15:18:13.010Z,6.27
2018-08-28T15:20:41.397Z,5.30
2018-08-28T15:23:09.783Z,6.27
2018-08-28T15:25:38.175Z,6.30
2018-08-28T15:28:06.569Z,5.97
2018-08-28T15:30:34.926Z,5.90
2018-08-28T15:33:03.295Z,5.77
2018-08-28T15:35:31.708Z,5.77
2018-08-28T15:38:00.069Z,5.90
2018-08-28T15:40:28.580Z,6.57
2018-08-28T15:42:57.019Z,5.60
2018-08-28T15:45:25.425Z,5.57
2018-08-28T15:47:53.804Z,5.97
2018-08-28T15:50:22.158Z,5.77
2018-08-28T15:52:50.469Z,5.97
2018-08-28T15:55:19.127Z,6.20
2018-08-28T15:57:47.585Z,6.23
2018-08-28T16:00:15.963Z,5.83
2018-08-28T16:02:44.326Z,5.77
2018-08-28T16:05:12.701Z,6.00
2018-08-28T16:07:41.082Z,5.90
2018-08-28T16:10:09.496Z,5.83
2018-08-28T16:12:37.819Z,5.23
2018-08-28T16:15:06.532Z,5.13
2018-08-28T16:17:34.880Z,6.20
2018-08-28T16:20:03.377Z,5.10
2018-08-28T16:22:34.776Z,4.90
2018-08-28T16:25:03.176Z,5.57
2018-08-28T16:27:40.998Z,5.03
2018-08-28T16:30:12.247Z,5.40
2018-08-28T16:32:40.630Z,4.77
2018-08-28T16:35:09.139Z,5.07
2018-08-28T16:37:37.503Z,4.50
2018-08-28T16:40:05.938Z,5.10
2018-08-28T16:42:34.272Z,4.80
2018-08-28T16:45:02.636Z,5.87
2018-08-28T16:47:31.094Z,5.53
2018-08-28T16:49:59.506Z,5.30
2018-08-28T16:52:27.838Z,4.73
2018-08-28T16:54:56.162Z,4.83
2018-08-28T16:57:24.545Z,5.03
2018-08-28T16:59:52.886Z,4.90
2018-08-28T17:02:21.213Z,5.83
2018-08-28T17:04:49.652Z,3.63
2018-08-28T17:07:18.119Z,4.93
2018-08-28T17:09:46.440Z,4.00
2018-08-28T17:12:14.834Z,4.93
2018-08-28T17:14:43.302Z,4.13
2018-08-28T17:17:11.705Z,4.27
2018-08-28T17:19:40.180Z,3.90
2018-08-28T17:22:10.168Z,4.47
2018-08-28T17:24:39.218Z,5.20
2018-08-28T17:27:07.587Z,4.90
2018-08-28T17:29:36.183Z,4.00
2018-08-28T17:32:04.621Z,4.40
2018-08-28T17:34:33.022Z,4.53
2018-08-28T17:37:01.430Z,5.07
2018-08-28T17:39:29.782Z,5.07
2018-08-28T17:41:58.138Z,4.97
2018-08-28T17:44:26.568Z,4.27
2018-08-28T17:46:55.493Z,4.50
2018-08-28T17:49:23.837Z,4.90
2018-08-28T17:51:52.368Z,5.03
2018-08-28T17:54:20.744Z,4.07
2018-08-28T17:56:49.198Z,5.17
2018-08-28T18:01:52.341Z,4.83
2018-08-28T18:04:20.711Z,6.07
2018-08-28T18:06:49.115Z,5.03
2018-08-28T18:09:17.462Z,6.00
2018-08-28T18:11:45.849Z,4.73
2018-08-28T18:14:14.248Z,4.53
2018-08-28T18:16:42.636Z,3.90
2018-08-28T18:19:11.029Z,4.30
2018-08-28T18:21:39.377Z,4.77
2018-08-28T18:24:07.807Z,4.60
2018-08-28T18:26:36.218Z,4.10
2018-08-28T18:29:04.569Z,3.67
2018-08-28T18:31:33.527Z,3.90
2018-08-28T18:34:01.884Z,4.13
2018-08-28T18:36:30.495Z,3.73
2018-08-28T18:38:58.964Z,3.70
2018-08-28T18:41:27.369Z,3.93
2018-08-28T18:43:55.726Z,3.17
2018-08-28T18:46:24.113Z,4.77
2018-08-28T18:48:52.631Z,3.87
2018-08-28T18:51:21.030Z,3.67
2018-08-28T18:53:49.403Z,3.80
2018-08-28T18:56:17.873Z,5.00
2018-08-28T18:58:46.166Z,4.00
2018-08-28T19:01:14.552Z,3.90
2018-08-28T19:03:43.617Z,4.00
2018-08-28T19:06:12.003Z,4.30
2018-08-28T19:08:40.541Z,4.67
2018-08-28T19:11:09.207Z,4.73
2018-08-28T19:13:37.618Z,4.67
2018-08-28T19:16:06.056Z,5.40
2018-08-28T19:18:34.649Z,5.97
2018-08-28T19:21:03.060Z,4.93
2018-08-28T19:23:31.392Z,4.50
2018-08-28T19:25:59.856Z,5.00
2018-08-28T19:28:28.831Z,4.27
2018-08-28T19:30:58.065Z,5.17
2018-08-28T19:33:26.437Z,4.80
2018-08-28T19:35:54.825Z,3.73
2018-08-28T19:38:23.237Z,5.30
2018-08-28T19:40:52.396Z,3.47
2018-08-28T19:43:20.853Z,4.17
2018-08-28T19:45:49.211Z,3.67
2018-08-28T19:48:17.574Z,4.53
2018-08-28T19:50:45.939Z,3.77
2018-08-28T19:53:14.308Z,4.87
2018-08-28T19:55:43.199Z,3.77
2018-08-28T19:58:11.652Z,3.93
2018-08-28T20:00:39.994Z,5.07
2018-08-28T20:03:08.353Z,5.00
2018-08-28T20:05:36.779Z,4.43
2018-08-28T20:08:05.321Z,5.37
2018-08-28T20:10:34.344Z,5.07
2018-08-28T20:13:02.829Z,4.80
2018-08-28T20:15:31.287Z,3.67
2018-08-28T20:17:59.625Z,4.43
2018-08-28T20:20:28.083Z,4.47
2018-08-28T20:22:56.415Z,4.93
2018-08-28T20:25:24.782Z,4.10
2018-08-28T20:27:53.267Z,4.20
2018-08-28T20:30:21.648Z,4.17
2018-08-28T20:32:50.002Z,5.13
2018-08-28T20:35:18.347Z,4.53
2018-08-28T20:37:47.305Z,3.67
2018-08-28T20:40:15.684Z,5.30
2018-08-28T20:42:44.019Z,4.40
2018-08-28T20:45:12.441Z,3.93
2018-08-28T20:47:41.359Z,4.33
2018-08-28T20:50:09.733Z,3.97
2018-08-28T20:52:38.116Z,5.70
2018-08-28T20:55:06.739Z,4.73
2018-08-28T20:57:35.075Z,4.67
2018-08-28T21:00:03.424Z,3.83
2018-08-28T21:02:31.798Z,4.00
2018-08-28T21:05:00.145Z,4.83
2018-08-28T21:07:28.479Z,5.20
2018-08-28T21:09:56.846Z,4.10
2018-08-28T21:12:25.240Z,4.23
2018-08-28T21:14:53.583Z,4.90
2018-08-28T21:17:21.997Z,4.67
2018-08-28T21:19:50.372Z,4.07
2018-08-28T21:22:18.768Z,4.43
2018-08-28T21:24:47.097Z,4.23
2018-08-28T21:27:15.464Z,5.17
2018-08-28T21:29:44.563Z,5.77
2018-08-28T21:32:12.908Z,4.47
2018-08-28T21:34:41.274Z,4.53
2018-08-28T21:37:09.884Z,4.77
2018-08-28T21:39:38.264Z,4.93
2018-08-28T21:42:06.650Z,5.60
2018-08-28T21:44:35.004Z,5.20
2018-08-28T21:47:03.694Z,5.43
2018-08-28T21:52:07.109Z,3.93
2018-08-28T21:54:35.604Z,4.97
2018-08-28T21:57:04.044Z,5.10
2018-08-28T21:59:32.389Z,5.00
2018-08-28T22:02:00.755Z,5.00
2018-08-28T22:04:29.172Z,4.40
2018-08-28T22:07:02.864Z,5.50
2018-08-28T22:09:31.260Z,4.20
2018-08-28T22:11:59.691Z,5.83
2018-08-28T22:14:28.024Z,4.43
2018-08-28T22:16:57.408Z,4.60
2018-08-28T22:19:25.795Z,4.37
2018-08-28T22:21:54.764Z,6.20
2018-08-28T22:24:24.066Z,5.87
2018-08-28T22:26:52.444Z,6.40
2018-08-28T22:29:20.818Z,5.13
2018-08-28T22:31:49.150Z,4.87
2018-08-28T22:34:17.495Z,4.77
2018-08-28T22:36:45.866Z,4.97
2018-08-28T22:39:14.264Z,5.10
2018-08-28T22:41:42.591Z,5.90
2018-08-28T22:44:10.962Z,5.07
2018-08-28T22:46:39.436Z,5.93
2018-08-28T22:49:07.838Z,4.63
2018-08-28T22:51:36.168Z,4.00
2018-08-28T22:54:04.537Z,5.23
2018-08-28T22:56:33.633Z,5.20
2018-08-28T22:59:02.100Z,6.03
2018-08-28T23:01:30.443Z,5.90
2018-08-28T23:03:58.805Z,5.67
2018-08-28T23:06:27.204Z,4.60
2018-08-28T23:08:55.555Z,5.40
2018-08-28T23:11:23.911Z,5.37
2018-08-28T23:13:52.995Z,6.27
2018-08-28T23:16:21.317Z,7.03
2018-08-28T23:18:49.763Z,5.07
2018-08-28T23:21:18.099Z,5.70
2018-08-28T23:23:46.459Z,6.43
2018-08-28T23:26:14.795Z,6.50
2018-08-28T23:28:43.121Z,6.50
2018-08-28T23:31:11.464Z,5.97
2018-08-28T23:33:39.875Z,6.43
2018-08-28T23:36:08.238Z,7.10
2018-08-28T23:38:36.530Z,4.60
2018-08-28T23:41:05.219Z,7.17
2018-08-28T23:43:34.434Z,6.67
2018-08-28T23:46:03.419Z,5.90
2018-08-28T23:48:31.775Z,4.10
2018-08-28T23:51:00.122Z,5.40
2018-08-28T23:53:28.511Z,5.20
2018-08-28T23:55:56.883Z,5.30
2018-08-28T23:58:25.317Z,7.00
